Time;durP1;ratioP1;P1;durP2;ratioP2;P2;SDS_P1;SDS_P2;PMS_P1;PMS_P2;Temp;Humidity;BMP_temperature;BMP_pressure;BME280_temperature;BME280_humidity;BME280_pressure;Samples;Min_cycle;Max_cycle;Signal;HPM_P1;HPM_P2
2022/03/22 00:01:21;;;;;;;35.97;16.85;;;;;;;-142.75;100.00;79011.94;5008466;28;20431;-67
2022/03/22 00:03:47;;;;;;;30.95;15.82;;;;;;;-142.75;100.00;79015.88;5008555;28;20113;-68
2022/03/22 00:06:13;;;;;;;31.25;16.08;;;;;;;-142.75;100.00;79021.78;5009727;28;20033;-67
2022/03/22 00:08:38;;;;;;;41.95;17.63;;;;;;;-142.75;100.00;79031.66;5007894;28;20172;-67
2022/03/22 00:11:03;;;;;;;32.38;18.02;;;;;;;-142.75;100.00;79045.44;5009614;28;20034;-67
2022/03/22 00:13:28;;;;;;;42.10;18.90;;;;;;;-142.75;100.00;79047.41;5009414;28;20026;-67
2022/03/22 00:15:55;;;;;;;33.15;17.85;;;;;;;-142.75;100.00;79055.28;5009646;28;20018;-67
2022/03/22 00:18:21;;;;;;;38.97;19.00;;;;;;;-142.75;100.00;79051.34;5009441;28;20113;-67
2022/03/22 00:20:46;;;;;;;39.67;19.77;;;;;;;-142.75;100.00;79049.38;5010107;28;20045;-67
2022/03/22 00:23:13;;;;;;;39.25;18.52;;;;;;;-142.75;100.00;79043.47;5009521;28;20088;-67
2022/03/22 00:25:38;;;;;;;37.63;18.63;;;;;;;-142.75;100.00;79043.47;5009358;28;20033;-67
2022/03/22 00:28:03;;;;;;;38.50;20.42;;;;;;;-142.75;100.00;79035.59;5007893;28;20381;-67
2022/03/22 00:30:31;;;;;;;34.75;18.48;;;;;;;-142.75;100.00;79035.59;5009686;28;20045;-68
2022/03/22 00:33:00;;;;;;;37.70;19.93;;;;;;;-142.75;100.00;79035.59;5009283;28;20025;-67
2022/03/22 00:35:28;;;;;;;34.20;18.23;;;;;;;-142.75;100.00;79035.59;5009395;28;20031;-66
2022/03/22 00:37:56;;;;;;;44.10;20.50;;;;;;;-142.75;100.00;79019.81;5009188;28;20097;-68
2022/03/22 00:40:26;;;;;;;40.80;20.70;;;;;;;-142.75;100.00;79023.75;5008182;28;20014;-66
2022/03/22 00:42:53;;;;;;;43.10;19.90;;;;;;;-142.75;100.00;79017.84;5008537;28;20081;-68
2022/03/22 00:45:24;;;;;;;36.03;18.83;;;;;;;-142.75;100.00;79015.88;5009403;28;20488;-68
2022/03/22 00:47:52;;;;;;;38.23;19.47;;;;;;;-142.75;100.00;79015.88;5009185;28;20026;-68
2022/03/22 00:50:19;;;;;;;37.47;19.50;;;;;;;-142.75;100.00;79023.75;5009515;28;20404;-68
2022/03/22 00:52:44;;;;;;;36.23;20.00;;;;;;;-142.75;100.00;79015.88;5009183;28;20484;-68
2022/03/22 00:55:12;;;;;;;37.17;19.10;;;;;;;-142.75;100.00;79015.88;5009236;28;20091;-69
2022/03/22 00:57:38;;;;;;;38.37;19.97;;;;;;;-142.75;100.00;79023.75;5009174;28;20033;-67
2022/03/22 01:00:06;;;;;;;43.00;21.60;;;;;;;-142.75;100.00;79031.66;5010599;28;20025;-68
2022/03/22 01:02:40;;;;;;;42.87;20.50;;;;;;;-142.75;100.00;79041.50;5011547;28;20018;-68
2022/03/22 01:05:08;;;;;;;40.23;19.70;;;;;;;-142.75;100.00;79039.53;5013003;28;20026;-68
2022/03/22 01:07:34;;;;;;;40.27;20.03;;;;;;;-142.75;100.00;79047.41;5012718;28;20029;-68
2022/03/22 01:10:06;;;;;;;38.27;19.27;;;;;;;-142.75;100.00;79049.38;5011088;28;20022;-69
2022/03/22 01:12:35;;;;;;;39.07;18.27;;;;;;;-142.75;100.00;79051.34;5012367;28;20032;-69
2022/03/22 01:15:05;;;;;;;37.67;20.10;;;;;;;-142.75;100.00;79047.41;5012677;28;20022;-68
2022/03/22 01:17:31;;;;;;;40.40;18.37;;;;;;;-142.75;100.00;79047.41;5012601;28;20026;-68
2022/03/22 01:19:57;;;;;;;30.17;17.60;;;;;;;-142.75;100.00;79043.47;5012814;28;20046;-69
2022/03/22 01:22:23;;;;;;;;;;;;;;;-142.75;100.00;79043.47;5011592;28;20396;-67
2022/03/22 01:24:49;;;;;;;28.57;16.23;;;;;;;-142.75;100.00;79043.47;5012491;28;19913;-68
2022/03/22 01:27:15;;;;;;;39.10;18.67;;;;;;;-142.75;100.00;79045.44;5012479;28;20022;-68
2022/03/22 01:29:40;;;;;;;39.65;18.92;;;;;;;-142.75;100.00;79049.38;5012344;28;20033;-69
2022/03/22 01:32:06;;;;;;;37.42;19.42;;;;;;;-142.75;100.00;79059.22;5012273;28;20488;-68
2022/03/22 01:34:31;;;;;;;37.20;19.52;;;;;;;-142.75;100.00;79055.28;5012280;28;20488;-69
2022/03/22 01:36:56;;;;;;;42.95;20.90;;;;;;;-142.75;100.00;79051.34;5012375;28;20125;-68
2022/03/22 01:39:22;;;;;;;42.15;20.88;;;;;;;-142.75;100.00;79039.53;5011985;28;20025;-68
2022/03/22 01:41:47;;;;;;;40.65;21.25;;;;;;;-142.75;100.00;79043.47;5012401;28;20064;-67
2022/03/22 01:44:12;;;;;;;38.85;21.13;;;;;;;-142.75;100.00;79049.38;5010911;28;20024;-68
2022/03/22 01:46:39;;;;;;;39.55;21.27;;;;;;;-142.75;100.00;79039.53;5012143;28;20088;-69
2022/03/22 01:49:05;;;;;;;39.23;19.90;;;;;;;-142.75;100.00;79033.63;5011452;28;20029;-67
2022/03/22 01:51:32;;;;;;;42.60;21.20;;;;;;;-142.75;100.00;79035.59;5012401;28;20014;-68
2022/03/22 01:53:57;;;;;;;42.77;21.83;;;;;;;-142.75;100.00;79035.59;5010758;28;20021;-68
2022/03/22 01:56:23;;;;;;;47.58;20.88;;;;;;;-142.75;100.00;79031.66;5011729;28;20100;-68
2022/03/22 01:58:49;;;;;;;38.92;20.40;;;;;;;-142.75;100.00;79027.69;5011614;28;20106;-68
2022/03/22 02:06:51;;;;;;;47.47;21.53;;;;;;;-142.75;100.00;79004.06;5010508;28;20045;-68
2022/03/22 02:09:16;;;;;;;44.17;21.87;;;;;;;-142.75;100.00;79000.13;5011281;28;20084;-68
2022/03/22 02:11:42;;;;;;;43.00;20.93;;;;;;;-142.75;100.00;79004.06;5011248;28;20045;-68
2022/03/22 02:14:09;;;;;;;43.30;21.42;;;;;;;-142.75;100.00;79015.88;5010467;28;20666;-68
2022/03/22 02:16:35;;;;;;;41.47;22.10;;;;;;;-142.75;100.00;79019.81;5011585;28;20021;-68
2022/03/22 02:19:00;;;;;;;41.38;21.23;;;;;;;-142.75;100.00;79031.66;5011063;28;20021;-68
2022/03/22 02:21:30;;;;;;;40.33;20.60;;;;;;;-142.75;100.00;79035.59;5010599;28;20484;-69
2022/03/22 02:23:55;;;;;;;44.27;22.27;;;;;;;-142.75;100.00;79035.59;5011218;28;20400;-68
2022/03/22 02:26:22;;;;;;;44.33;21.90;;;;;;;-142.75;100.00;79035.59;5010121;28;20025;-66
2022/03/22 02:28:53;;;;;;;39.63;20.63;;;;;;;-142.75;100.00;79047.41;5010852;28;20060;-66
2022/03/22 02:31:25;;;;;;;47.93;21.87;;;;;;;-142.75;100.00;79033.63;5011391;28;20048;-66
2022/03/22 02:33:50;;;;;;;45.23;22.40;;;;;;;-142.75;100.00;79033.63;5011470;28;20147;-68
2022/03/22 02:36:16;;;;;;;46.50;23.55;;;;;;;-142.75;100.00;79031.66;5011251;28;20030;-68
2022/03/22 02:38:42;;;;;;;43.67;21.77;;;;;;;-142.75;100.00;79027.69;5009731;28;20021;-64
2022/03/22 02:41:08;;;;;;;51.58;22.65;;;;;;;-142.75;100.00;79027.69;5010895;28;20032;-66
2022/03/22 02:43:34;;;;;;;45.97;22.13;;;;;;;-142.75;100.00;79023.75;5009980;28;20061;-66
2022/03/22 02:45:59;;;;;;;43.22;22.45;;;;;;;-142.75;100.00;79027.69;5009809;28;20050;-67
2022/03/22 02:48:24;;;;;;;43.50;21.52;;;;;;;-142.75;100.00;79023.75;5010640;28;20065;-67
2022/03/22 02:50:51;;;;;;;43.58;22.80;;;;;;;-142.75;100.00;79023.75;5011412;28;20124;-66
2022/03/22 02:53:16;;;;;;;43.50;22.30;;;;;;;-142.75;100.00;79033.63;5009496;28;20044;-67
2022/03/22 02:55:41;;;;;;;46.92;23.92;;;;;;;-142.75;100.00;79031.66;5010597;28;20484;-66
2022/03/22 02:58:07;;;;;;;40.37;20.67;;;;;;;-142.75;100.00;79027.69;5009205;28;20087;-67
2022/03/22 03:00:32;;;;;;;46.43;23.70;;;;;;;-142.75;100.00;79027.69;5010889;28;20273;-67
2022/03/22 03:02:58;;;;;;;44.38;22.13;;;;;;;-142.75;100.00;79023.75;5009548;28;20398;-67
2022/03/22 03:05:23;;;;;;;43.20;22.80;;;;;;;-142.75;100.00;79017.84;5010776;28;20033;-66
2022/03/22 03:07:49;;;;;;;40.92;22.15;;;;;;;-142.75;100.00;79023.75;5009156;28;20021;-66
2022/03/22 03:10:15;;;;;;;44.20;23.37;;;;;;;-142.75;100.00;79019.81;5010357;28;20468;-68
2022/03/22 03:12:41;;;;;;;40.20;22.48;;;;;;;-142.75;100.00;79025.72;5008959;28;20141;-65
2022/03/22 03:15:08;;;;;;;43.42;22.38;;;;;;;-142.75;100.00;79027.69;5010597;28;20109;-67
2022/03/22 03:17:34;;;;;;;49.83;23.03;;;;;;;-142.75;100.00;79027.69;5009137;28;20029;-66
2022/03/22 03:19:59;;;;;;;45.22;23.10;;;;;;;-142.75;100.00;79027.69;5010476;28;20411;-67
2022/03/22 03:22:25;;;;;;;41.78;23.08;;;;;;;-142.75;100.00;79033.63;5009802;28;20026;-66
2022/03/22 03:24:51;;;;;;;44.72;22.73;;;;;;;-142.75;100.00;79039.53;5010186;28;20108;-67
2022/03/22 03:27:16;;;;;;;44.38;22.70;;;;;;;-142.75;100.00;79043.47;5010269;28;20095;-67
2022/03/22 03:29:42;;;;;;;43.15;23.67;;;;;;;-142.75;100.00;79047.41;5009991;28;20025;-66
2022/03/22 03:32:07;;;;;;;48.70;23.63;;;;;;;-142.75;100.00;79053.31;5010116;28;20061;-66
2022/03/22 03:34:33;;;;;;;42.75;22.75;;;;;;;-142.75;100.00;79055.28;5010235;28;20029;-66
2022/03/22 03:36:58;;;;;;;43.60;22.40;;;;;;;-142.75;100.00;79055.28;5009967;28;20029;-65
2022/03/22 03:39:23;;;;;;;48.05;21.85;;;;;;;-142.75;100.00;79055.28;5009816;28;20025;-67
2022/03/22 03:41:56;;;;;;;40.33;21.38;;;;;;;-142.75;100.00;79057.25;5008687;28;20503;-67
2022/03/22 03:47:18;;;;;;;38.67;19.10;;;;;;;-142.75;100.00;79059.22;5009985;28;20087;-67
2022/03/22 03:49:48;;;;;;;41.50;20.93;;;;;;;-142.75;100.00;79061.19;5009591;28;20040;-67
2022/03/22 03:52:17;;;;;;;37.50;19.87;;;;;;;-142.75;100.00;79067.09;5010025;28;20026;-67
2022/03/22 03:54:43;;;;;;;45.77;20.77;;;;;;;-142.75;100.00;79073.00;5009825;28;20395;-67
2022/03/22 03:57:08;;;;;;;;;;;;;;;-142.75;100.00;79078.91;5010283;28;20034;-67
2022/03/22 03:59:35;;;;;;;41.17;20.43;;;;;;;-142.75;100.00;79096.66;5009782;28;19928;-67
2022/03/22 04:02:00;;;;;;;;;;;;;;;-142.75;100.00;79106.50;5009018;28;20026;-67
2022/03/22 04:04:26;;;;;;;38.50;20.07;;;;;;;-142.75;100.00;79110.44;5009765;28;19982;-66
2022/03/22 04:06:51;;;;;;;45.75;21.17;;;;;;;-142.75;100.00;79112.41;5009686;28;20435;-67
2022/03/22 04:09:17;;;;;;;39.78;20.10;;;;;;;-142.75;100.00;79106.50;5009240;28;20029;-65
2022/03/22 04:14:08;;;;;;;37.08;19.70;;;;;;;-142.75;100.00;79112.41;5067414;22;20041;-66
2022/03/22 04:16:34;;;;;;;39.88;19.80;;;;;;;-142.75;100.00;79126.19;5048495;28;20394;-66
2022/03/22 04:19:00;;;;;;;40.80;21.35;;;;;;;-142.75;100.00;79120.28;5049234;28;20020;-66
2022/03/22 04:21:26;;;;;;;44.97;21.47;;;;;;;-142.75;100.00;79124.22;5049915;28;20032;-66
2022/03/22 04:23:51;;;;;;;43.55;21.50;;;;;;;-142.75;100.00;79130.13;5049485;28;20033;-66
2022/03/22 04:26:17;;;;;;;43.90;21.13;;;;;;;-142.75;100.00;79130.13;5049274;28;20399;-66
2022/03/22 04:34:11;;;;;;;42.50;21.17;;;;;;;-142.75;100.00;79139.97;5049236;28;20047;-66
2022/03/22 04:36:36;;;;;;;39.53;20.47;;;;;;;-142.75;100.00;79136.03;5053103;28;20499;-66
2022/03/22 04:39:02;;;;;;;39.97;20.40;;;;;;;-142.75;100.00;79138.00;5051281;28;20289;-66
2022/03/22 04:41:27;;;;;;;47.55;21.20;;;;;;;-142.75;100.00;79145.88;5051722;28;20025;-66
2022/03/22 04:43:52;;;;;;;41.95;21.83;;;;;;;-142.75;100.00;79141.94;5052879;28;20017;-66
2022/03/22 04:46:18;;;;;;;40.97;22.57;;;;;;;-142.75;100.00;79147.84;5052950;28;20037;-65
2022/03/22 04:48:47;;;;;;;40.00;20.65;;;;;;;-142.75;100.00;79138.00;5032987;28;20025;-65
2022/03/22 04:56:45;;;;;;;38.83;19.10;;;;;;;-142.75;100.00;79141.94;5053216;28;20036;-65
2022/03/22 04:59:11;;;;;;;33.33;18.10;;;;;;;-142.75;100.00;79138.00;5052667;28;20530;-66
2022/03/22 05:01:37;;;;;;;34.47;18.80;;;;;;;-142.75;100.00;79141.94;5051691;28;20123;-66
2022/03/22 05:04:02;;;;;;;36.25;18.67;;;;;;;-142.75;100.00;79149.81;5052705;28;20053;-66
2022/03/22 05:06:28;;;;;;;37.95;21.35;;;;;;;-142.75;100.00;79147.84;5052468;28;20032;-66
2022/03/22 05:08:54;;;;;;;40.90;21.33;;;;;;;-142.75;100.00;79143.91;5050887;28;20028;-65
2022/03/22 05:11:23;;;;;;;47.15;22.20;;;;;;;-142.75;100.00;79130.13;5052443;28;20021;-65
2022/03/22 05:13:48;;;;;;;35.70;20.03;;;;;;;-142.75;100.00;79138.00;5052223;28;20035;-65
2022/03/22 05:16:14;;;;;;;36.35;19.10;;;;;;;-142.75;100.00;79149.81;5052231;28;20021;-65
2022/03/22 05:18:40;;;;;;;43.17;19.10;;;;;;;-142.75;100.00;79169.53;5051920;28;20025;-66
2022/03/22 05:21:07;;;;;;;38.15;19.65;;;;;;;-142.75;100.00;79157.72;5052635;28;20071;-66
2022/03/22 05:23:34;;;;;;;45.17;22.00;;;;;;;-142.75;100.00;79163.63;5052013;28;20025;-67
2022/03/22 05:25:59;;;;;;;44.93;22.90;;;;;;;-142.75;100.00;79159.69;5052305;28;20048;-66
2022/03/22 05:28:25;;;;;;;43.38;22.63;;;;;;;-142.75;100.00;79163.63;5051865;28;20056;-66
2022/03/22 05:30:50;;;;;;;45.90;22.13;;;;;;;-142.75;100.00;79165.59;5052214;28;20107;-66
2022/03/22 05:33:15;;;;;;;46.25;24.13;;;;;;;-142.75;100.00;79173.47;5051924;28;20479;-67
2022/03/22 05:35:40;;;;;;;49.07;24.80;;;;;;;-142.75;100.00;79173.47;5052031;28;20028;-67
2022/03/22 05:38:06;;;;;;;41.97;23.97;;;;;;;-142.75;100.00;79179.38;5051510;28;20289;-66
2022/03/22 05:40:31;;;;;;;38.83;21.47;;;;;;;-142.75;100.00;79171.50;5051865;28;20263;-66
2022/03/22 05:42:57;;;;;;;43.38;23.95;;;;;;;-142.75;100.00;79173.47;5051976;28;20636;-67
2022/03/22 05:45:23;;;;;;;40.70;22.67;;;;;;;-142.75;100.00;79167.56;5051418;28;20395;-66
2022/03/22 05:47:49;;;;;;;45.10;23.43;;;;;;;-142.75;100.00;79161.66;5050262;28;20017;-66
2022/03/22 05:50:15;;;;;;;41.95;21.55;;;;;;;-142.75;100.00;79159.69;5051553;28;20025;-67
2022/03/22 05:52:42;;;;;;;45.38;20.90;;;;;;;-142.75;100.00;79175.44;5052004;28;20617;-67
2022/03/22 05:55:08;;;;;;;39.03;20.70;;;;;;;-142.75;100.00;79175.44;5051709;28;20037;-67
2022/03/22 05:57:33;;;;;;;38.63;20.27;;;;;;;-142.75;100.00;79161.66;5051662;28;20445;-66
2022/03/22 05:59:58;;;;;;;44.77;21.60;;;;;;;-142.75;100.00;79169.53;5051743;28;20100;-66
2022/03/22 06:02:24;;;;;;;39.43;19.40;;;;;;;-142.75;100.00;79173.47;5051577;28;20777;-66
2022/03/22 06:04:49;;;;;;;36.55;19.35;;;;;;;-142.75;100.00;79181.34;5051355;28;20024;-67
2022/03/22 06:07:14;;;;;;;36.00;19.60;;;;;;;-142.75;100.00;79171.50;5051657;28;20021;-67
2022/03/22 06:09:40;;;;;;;40.67;21.77;;;;;;;-142.75;100.00;79163.63;5051069;28;20055;-67
2022/03/22 06:12:06;;;;;;;37.60;20.75;;;;;;;-142.75;100.00;79151.78;5051296;28;20269;-66
2022/03/22 06:14:31;;;;;;;;;;;;;;;-142.75;100.00;79141.94;5050638;28;20463;-66
2022/03/22 06:16:56;;;;;;;42.23;21.00;;;;;;;-142.75;100.00;79139.97;5049933;28;19952;-66
2022/03/22 06:19:22;;;;;;;49.00;21.87;;;;;;;-142.75;100.00;79136.03;5050928;28;20029;-66
2022/03/22 06:21:47;;;;;;;42.25;23.33;;;;;;;-142.75;100.00;79138.00;5051719;28;20283;-67
2022/03/22 06:24:12;;;;;;;44.08;23.20;;;;;;;-142.75;100.00;79128.16;5051068;28;20097;-67
2022/03/22 06:26:38;;;;;;;45.60;22.60;;;;;;;-142.75;100.00;79124.22;5051308;28;20040;-66
2022/03/22 06:29:03;;;;;;;40.10;22.67;;;;;;;-142.75;100.00;79116.34;5051035;28;20107;-67
2022/03/22 06:31:35;;;;;;;37.97;20.95;;;;;;;-142.75;100.00;79106.50;5051221;28;20272;-66
2022/03/22 06:34:01;;;;;;;42.67;22.10;;;;;;;-142.75;100.00;79100.59;5050922;28;20079;-67
2022/03/22 06:36:27;;;;;;;;;;;;;;;-142.75;100.00;79074.97;5051189;28;20032;-67
2022/03/22 06:38:52;;;;;;;44.20;22.37;;;;;;;-142.75;100.00;79059.22;5050603;28;19956;-66
2022/03/22 06:41:18;;;;;;;35.67;18.50;;;;;;;-142.75;100.00;79051.34;5050788;28;20795;-67
2022/03/22 06:43:43;;;;;;;35.08;19.42;;;;;;;-142.75;100.00;79023.75;5050732;28;20032;-67
2022/03/22 06:46:08;;;;;;;37.90;20.83;;;;;;;-142.75;100.00;79011.94;5050530;28;20024;-67
2022/03/22 06:48:33;;;;;;;35.97;21.90;;;;;;;-142.75;100.00;78988.31;5048925;28;20086;-67
2022/03/22 06:50:59;;;;;;;38.47;20.83;;;;;;;-142.75;100.00;78968.63;5049849;28;20267;-67
2022/03/22 06:53:24;;;;;;;35.93;18.80;;;;;;;-142.75;100.00;78956.78;5050298;28;20353;-67
2022/03/22 06:55:52;;;;;;;37.15;18.70;;;;;;;-142.75;100.00;78943.00;5050481;28;20035;-66
2022/03/22 06:58:21;;;;;;;37.97;20.33;;;;;;;-142.75;100.00;78921.34;5049251;28;20064;-67
2022/03/22 07:00:47;;;;;;;38.93;21.50;;;;;;;-142.75;100.00;78897.72;5050643;28;20478;-67
2022/03/22 07:03:12;;;;;;;;;;;;;;;-142.75;100.00;78881.94;5049502;28;20454;-67
2022/03/22 07:05:38;;;;;;;45.87;23.90;;;;;;;-142.75;100.00;78858.31;5049104;28;19913;-67
2022/03/22 07:08:04;;;;;;;39.30;22.05;;;;;;;-142.75;100.00;78846.50;5049709;28;20029;-67
2022/03/22 07:10:31;;;;;;;35.00;21.08;;;;;;;-142.75;100.00;78820.88;5050243;28;20025;-66
2022/03/22 07:13:03;;;;;;;35.47;19.97;;;;;;;-142.75;100.00;78795.28;5048697;28;20021;-66
2022/03/22 07:15:32;;;;;;;35.87;19.27;;;;;;;-142.75;100.00;78783.47;5048857;28;20021;-66
2022/03/22 07:17:58;;;;;;;35.60;18.67;;;;;;;-142.75;100.00;78763.78;5049816;28;20482;-67
2022/03/22 07:20:24;;;;;;;34.70;19.48;;;;;;;-142.75;100.00;78759.84;5050277;28;20019;-66
2022/03/22 07:22:49;;;;;;;30.60;18.90;;;;;;;-142.75;100.00;78746.03;5050320;28;20033;-67
2022/03/22 07:25:17;;;;;;;36.75;19.50;;;;;;;-142.75;100.00;78718.47;5049990;28;20556;-66
2022/03/22 07:27:43;;;;;;;35.43;20.17;;;;;;;-142.75;100.00;78718.47;5049889;28;20032;-66
2022/03/22 07:30:11;;;;;;;34.15;20.10;;;;;;;-142.75;100.00;78681.06;5049676;28;20041;-67
2022/03/22 07:32:37;;;;;;;35.53;20.27;;;;;;;-142.75;100.00;78641.66;5049875;28;20461;-67
2022/03/22 07:35:03;;;;;;;33.03;18.80;;;;;;;-142.75;100.00;78620.00;5049715;28;20029;-66
2022/03/22 07:37:29;;;;;;;38.10;18.45;;;;;;;-142.75;100.00;78574.69;5048752;28;20506;-66
2022/03/22 07:39:57;;;;;;;33.95;19.00;;;;;;;-142.75;100.00;78551.06;5048344;28;20028;-67
2022/03/22 07:42:29;;;;;;;32.15;19.10;;;;;;;-142.75;100.00;78519.56;5049028;28;20380;-66
2022/03/22 07:44:56;;;;;;;32.13;19.00;;;;;;;-142.75;100.00;78466.38;5048835;28;20031;-66
2022/03/22 07:47:22;;;;;;;35.67;19.90;;;;;;;-142.75;100.00;78448.66;5047879;28;20064;-66
2022/03/22 07:53:14;;;;;;;31.45;18.58;;;;;;;-142.75;100.00;78419.13;5048849;28;20108;-66
2022/03/22 07:55:20;;;;;;;30.25;17.13;;;;;;;-142.75;100.00;78401.38;5042622;28;20544;-66
2022/03/22 07:57:45;;;;;;;31.20;17.38;;;;;;;-142.75;100.00;78385.63;5048455;28;20037;-66
2022/03/22 08:00:12;;;;;;;31.42;18.33;;;;;;;-142.75;100.00;78348.22;5048415;28;20071;-67
2022/03/22 08:02:37;;;;;;;;;;;;;;;-142.75;100.00;78308.84;5048616;28;20040;-66
2022/03/22 08:05:05;;;;;;;29.50;16.58;;;;;;;-142.75;100.00;78271.41;5048503;28;19919;-67
2022/03/22 08:07:31;;;;;;;26.75;16.60;;;;;;;-142.75;100.00;78263.53;5048241;28;20033;-67
2022/03/22 08:09:56;;;;;;;29.95;16.17;;;;;;;-142.75;100.00;78273.38;5047418;28;20364;-65
2022/03/22 08:12:22;;;;;;;27.35;15.75;;;;;;;-142.75;100.00;78269.44;5048521;28;20028;-66
2022/03/22 08:14:47;;;;;;;33.75;17.48;;;;;;;-142.75;100.00;78267.47;5048776;28;20021;-66
2022/03/22 08:17:12;;;;;;;30.23;17.10;;;;;;;-142.75;100.00;78259.59;5048510;28;20053;-66
2022/03/22 08:19:37;;;;;;;27.75;16.42;;;;;;;-142.75;100.00;78235.97;5049341;28;20505;-67
2022/03/22 08:22:03;;;;;;;;;;;;;;;-142.75;100.00;78235.97;5050559;28;20029;-65
2022/03/22 08:24:28;;;;;;;30.50;15.90;;;;;;;-142.75;100.00;78220.22;5049695;28;19958;-65
2022/03/22 08:26:54;;;;;;;26.35;15.20;;;;;;;-142.75;100.00;78192.66;5049295;28;20025;-66
2022/03/22 08:29:19;;;;;;;;;;;;;;;-142.75;100.00;78176.88;5029786;28;20071;-67
2022/03/22 08:31:44;;;;;;;28.58;15.10;;;;;;;-142.75;100.00;78159.16;5048518;28;20011;-66
2022/03/22 08:34:10;;;;;;;24.70;15.23;;;;;;;-142.75;100.00;78127.66;5049741;28;20147;-66
2022/03/22 08:36:35;;;;;;;27.65;14.93;;;;;;;-142.75;100.00;78151.28;5049367;28;20031;-66
2022/03/22 08:39:01;;;;;;;24.55;14.27;;;;;;;-142.75;100.00;78182.81;5049143;28;20056;-66
2022/03/22 08:41:27;;;;;;;25.25;14.32;;;;;;;-142.75;100.00;78127.66;5049368;28;20668;-66
2022/03/22 08:43:52;;;;;;;;;;;;;;;-142.75;100.00;78088.28;5049696;28;20075;-66
2022/03/22 08:46:20;;;;;;;24.92;14.38;;;;;;;-142.75;100.00;78052.81;5049038;28;19913;-67
2022/03/22 08:48:47;;;;;;;27.48;14.80;;;;;;;-142.75;100.00;78035.09;5048116;28;20028;-67
2022/03/22 08:51:13;;;;;;;23.90;14.52;;;;;;;-142.75;100.00;77976.03;5049020;28;20036;-66
2022/03/22 08:53:38;;;;;;;26.45;14.50;;;;;;;-142.75;100.00;77972.09;5047524;28;20078;-66
2022/03/22 08:56:04;;;;;;;24.38;14.35;;;;;;;-142.75;100.00;77932.72;5047687;28;20036;-67
2022/03/22 08:58:30;;;;;;;;;;;;;;;-142.75;100.00;77885.44;5049080;28;20025;-67
2022/03/22 09:00:55;;;;;;;20.77;13.07;;;;;;;-142.75;100.00;77891.34;5048989;28;19913;-66
2022/03/22 09:03:22;;;;;;;;;;;;;;;-142.75;100.00;77842.13;5048182;28;20028;-67
2022/03/22 09:08:32;;;;;;;26.98;13.60;;;;;;;-142.75;100.00;77790.94;5045999;28;20643;-65
2022/03/22 09:10:57;;;;;;;;;;;;;;;-142.75;100.00;77794.88;5049543;28;20025;-67
2022/03/22 09:13:22;;;;;;;20.23;11.85;;;;;;;-142.75;100.00;77783.06;5047574;28;19913;-67
2022/03/22 09:15:51;;;;;;;;;;;;;;;-142.75;100.00;77765.34;5049252;28;20028;-67
2022/03/22 09:18:17;;;;;;;22.52;12.40;;;;;;;-142.75;100.00;77761.41;5048892;28;19924;-67
2022/03/22 09:20:43;;;;;;;;;;;;;;;-142.75;100.00;77729.88;5050561;28;20017;-68
2022/03/22 09:23:09;;;;;;;23.35;12.68;;;;;;;-142.75;100.00;77696.41;5053425;28;19927;-67
2022/03/22 09:25:35;;;;;;;;;;;;;;;-142.75;98.31;77660.97;5034990;28;20036;-65
2022/03/22 09:28:01;;;;;;;26.55;13.60;;;;;;;-142.75;94.14;77660.97;5051532;28;19913;-65
2022/03/22 09:30:26;;;;;;;;;;;;;;;-142.75;92.66;77657.03;5053092;28;20028;-65
2022/03/22 09:32:52;;;;;;;18.50;12.02;;;;;;;-142.75;93.89;77627.50;5052377;28;19912;-65
2022/03/22 09:35:19;;;;;;;;;;;;;;;-142.75;88.19;77601.91;5053439;28;20021;-65
2022/03/22 09:37:46;;;;;;;23.48;12.13;;;;;;;-142.75;86.38;77582.22;5052609;28;19952;-65
2022/03/22 09:40:13;;;;;;;21.95;12.95;;;;;;;-142.75;84.37;77574.34;5053003;28;20021;-67
2022/03/22 09:42:42;;;;;;;19.45;12.23;;;;;;;-142.75;84.17;77560.56;5053049;28;20037;-67
2022/03/22 09:45:09;;;;;;;21.83;12.55;;;;;;;-142.75;81.96;77544.81;5052003;28;20107;-67
2022/03/22 09:47:36;;;;;;;22.20;13.07;;;;;;;-142.75;80.30;77495.59;5052274;28;20037;-65
2022/03/22 09:50:03;;;;;;;23.88;12.55;;;;;;;-142.75;77.34;77470.00;5052507;28;20371;-65
2022/03/22 09:52:29;;;;;;;20.10;12.52;;;;;;;-142.75;74.63;77434.53;5052899;28;20036;-65
2022/03/22 09:54:54;;;;;;;21.23;12.77;;;;;;;-142.75;73.80;77405.00;5052488;28;20139;-66
2022/03/22 09:57:20;;;;;;;22.77;12.95;;;;;;;-142.75;70.55;77393.19;5052719;28;20483;-66
2022/03/22 09:59:45;;;;;;;20.73;12.73;;;;;;;-142.75;71.88;77377.44;5052391;28;20490;-66
2022/03/22 10:02:10;;;;;;;19.73;12.70;;;;;;;-142.75;70.31;77385.31;5052908;28;20116;-66
2022/03/22 10:04:37;;;;;;;24.95;12.00;;;;;;;-142.75;69.14;77361.69;5052570;28;20055;-66
2022/03/22 10:07:05;;;;;;;21.95;12.93;;;;;;;-142.75;68.24;77355.78;5052514;28;20190;-66
2022/03/22 10:09:36;;;;;;;19.67;11.18;;;;;;;-142.75;65.95;77338.06;5052270;28;20475;-66
2022/03/22 10:12:03;;;;;;;22.38;13.25;;;;;;;-142.75;65.50;77306.56;5052108;28;20037;-66
2022/03/22 10:14:36;;;;;;;20.55;11.82;;;;;;;-142.75;63.45;77318.38;5041732;22;20060;-68
2022/03/22 10:17:15;;;;;;;18.35;12.30;;;;;;;-142.75;64.46;77332.16;5020915;28;20108;-68
2022/03/22 10:19:49;;;;;;;19.23;11.57;;;;;;;-142.75;64.58;77316.41;5010466;28;20964;-68
2022/03/22 10:22:14;;;;;;;18.17;10.85;;;;;;;-142.75;62.57;77306.56;5013149;28;20029;-68
2022/03/22 10:24:51;;;;;;;20.25;12.07;;;;;;;-142.75;62.92;77306.56;5010860;28;20025;-68
2022/03/22 10:27:29;;;;;;;22.63;12.45;;;;;;;-142.75;63.24;77275.06;5012588;28;20026;-68
2022/03/22 10:29:59;;;;;;;19.77;11.48;;;;;;;-142.75;62.90;77247.50;5009614;28;20049;-68
2022/03/22 10:32:40;;;;;;;19.38;11.93;;;;;;;-142.75;62.02;77243.56;5010926;28;20033;-68
2022/03/22 10:35:10;;;;;;;21.33;11.48;;;;;;;-142.75;61.13;77235.69;5011897;28;20483;-68
2022/03/22 10:37:35;;;;;;;20.92;11.65;;;;;;;-142.75;57.00;77176.63;5012026;28;20038;-68
2022/03/22 10:40:00;;;;;;;20.25;11.93;;;;;;;-142.75;59.05;77186.47;5010573;28;20029;-68
2022/03/22 10:42:27;;;;;;;17.60;10.55;;;;;;;-142.75;55.60;77164.81;5012103;28;20029;-67
2022/03/22 10:44:58;;;;;;;18.33;10.68;;;;;;;-142.75;54.95;77151.03;5011580;28;20057;-68
2022/03/22 10:47:27;;;;;;;21.88;11.85;;;;;;;-142.75;52.81;77125.44;5010323;28;20029;-71
2022/03/22 10:50:05;;;;;;;19.00;10.82;;;;;;;-142.75;52.34;77123.47;5011409;28;20029;-68
2022/03/22 10:52:35;;;;;;;18.40;11.02;;;;;;;-142.75;53.58;77133.31;5012255;28;20022;-68
2022/03/22 10:55:01;;;;;;;22.38;11.60;;;;;;;-142.75;52.88;77086.06;5010512;28;20036;-68
2022/03/22 10:57:32;;;;;;;18.20;10.73;;;;;;;-142.75;50.26;77074.25;5011783;28;20026;-68
2022/03/22 11:00:08;;;;;;;24.52;10.80;;;;;;;-142.75;49.06;77107.72;5011628;28;20030;-68
2022/03/22 11:02:37;;;;;;;16.65;9.52;;;;;;;-142.75;47.84;77084.09;5011674;28;20104;-69
2022/03/22 11:05:04;;;;;;;20.58;10.27;;;;;;;-142.75;47.29;77042.75;5010377;28;20037;-68
2022/03/22 11:07:37;;;;;;;16.90;9.48;;;;;;;-142.75;43.78;77105.75;5011084;28;20046;-68
2022/03/22 11:10:03;;;;;;;17.85;9.35;;;;;;;-142.75;46.49;77062.44;5009734;28;20510;-67
2022/03/22 11:12:28;;;;;;;17.42;9.13;;;;;;;-142.75;46.60;77034.88;5011083;28;20033;-69
2022/03/22 11:14:55;;;;;;;19.05;9.52;;;;;;;-142.75;49.54;77015.19;5011659;28;20034;-67
2022/03/22 11:17:23;;;;;;;12.95;6.88;;;;;;;-142.75;41.27;77062.44;5010074;28;20034;-69
2022/03/22 11:19:49;;;;;;;12.50;8.00;;;;;;;-142.75;43.05;77080.16;5009308;28;20029;-66
2022/03/22 11:22:17;;;;;;;14.25;8.60;;;;;;;-142.75;44.92;77091.97;5011641;28;20550;-67
2022/03/22 11:24:42;;;;;;;15.00;8.68;;;;;;;-142.75;43.15;77044.72;5009673;28;20030;-68
2022/03/22 11:27:08;;;;;;;14.73;8.40;;;;;;;-142.75;44.14;76993.53;5009902;28;20032;-68